Nearby METAR Reports

 

EGEO - Oban, United Kingdom
Distance from station: SSW 18mi, 30km
Updated: 19/06/2018 16:20
NOT Current
Partly cloudy
Partly cloudy
 Wind from WSW
Wind: WSW 13 mph , 20 km/h
Temperature: 14°C
Dew Point: 7°C
Humidity: 63%
Barometer: 1017 hPa
Clouds: Partly cloudy
Visibility: 6 miles , 10 km
Cloud details: Few Clouds 823 m
Partly cloudy 1219 m
2018/06/19 15:20 EGEO 191520Z 24011KT 9999 FEW027 SCT040 14/07 Q1017
EGPU - Tiree, United Kingdom
Distance from station: WSW 64mi, 103km
Updated: 19/06/2018 22:20
Rain, Mostly cloudy
Rain, Mostly cloudy
 Wind from NE
Wind: NE 9 mph , 15 km/h
Temperature: 9°C
Wind Chill: 7°C
Dew Point: 8°C
Humidity: 94%
Barometer: 1013 hPa
Summary: Rain
Clouds: Mostly cloudy
Visibility: 6 miles , 10 km
Cloud details: Few Clouds 274 m
Partly cloudy 488 m
Mostly cloudy 1280 m
2018/06/19 21:20 EGPU 192120Z AUTO 05008KT 9999 RA FEW009/// SCT016/// BKN042/// 09/08 Q1013
EGPF - Glasgow, United Kingdom
Distance from station: SSE 66mi, 107km
Updated: 19/06/2018 22:50
Rain, Thunderstorm
Rain, Thunderstorm
 Wind from ENE
Wind: ENE 10 mph , 17 km/h
Temperature: 10°C
Wind Chill: 8°C
Dew Point: 10°C
Humidity: 100%
Barometer: 1013 hPa
Summary: Rain
Clouds: Thunderstorm
Visibility: 3 miles , 4 km
Cloud details: Mostly cloudy 122 m
Mostly cloudy 274 m
Mostly cloudy 792 m
2018/06/19 21:50 EGPF 192150Z AUTO 06009KT 4300 RA BKN004/// BKN009/// BKN026/// //////TCU 10/10 Q1013 REDZ
 
EGPE - Inverness, United Kingdom
Distance from station: NE 71mi, 114km
Updated: 19/06/2018 22:50
Light drizzle, Few clouds
Light drizzle, Few clouds
 Wind from S
Wind: S 5 mph , 7 km/h
Temperature: 10°C
Wind Chill: 9°C
Dew Point: 8°C
Humidity: 88%
Barometer: 1014 hPa
Summary: Light Drizzle
Clouds: Few Clouds
Visibility: 6 miles , 10 km
Cloud details: Few Clouds 1250 m
2018/06/19 21:50 EGPE 192150Z AUTO 18004KT 9999 -DZ FEW041/// 10/08 Q1014
EGPI - Islay/Port Ellen, United Kingdom
Distance from station: SSW 81mi, 131km
Updated: 19/06/2018 22:20
Mist, Mostly cloudy
Mist, Mostly cloudy
 Wind from ESE
Wind: ESE 14 mph , 22 km/h
Temperature: 10°C
Wind Chill: 7°C
Dew Point: 9°C
Humidity: 94%
Barometer: 1011 hPa
Summary: Mist
Clouds: Mostly cloudy
Visibility: 3 miles , 5 km
Cloud details: Few Clouds 335 m
Mostly cloudy 488 m
2018/06/19 21:20 EGPI 192120Z AUTO 11012KT 070V150 4800 BR FEW011/// BKN016/// 10/09 Q1011
EGPN - Dundee/Riverside, United Kingdom
Distance from station: E 86mi, 138km
Updated: 19/06/2018 20:20
NOT Current
Light rain, Partly cloudy
Light rain, Partly cloudy
 Wind from W
Wind: W 5 mph , 7 km/h
Temperature: 12°C
Dew Point: 9°C
Humidity: 82%
Barometer: 1015 hPa
Summary: Light rain
Clouds: Partly cloudy
Visibility: 6 miles , 10 km
Cloud details: Few Clouds 914 m
Partly cloudy 1463 m
2018/06/19 19:20 EGPN 191920Z 26004KT 9999 -RA FEW030 SCT048 12/09 Q1015
 
EGPK - Prestwick, United Kingdom
Distance from station: SSE 88mi, 141km
Updated: 19/06/2018 22:50
Rain, Mostly cloudy
Rain, Mostly cloudy
 Wind from varies
Wind: varies 2 mph , 4 km/h
Temperature: 11°C
Dew Point: 10°C
Humidity: 94%
Barometer: 1012 hPa
Summary: Rain
Clouds: Mostly cloudy
Visibility: 2 miles , 4 km
Cloud details: Partly cloudy 183 m
Mostly cloudy 488 m
2018/06/19 21:50 EGPK 192150Z VRB02KT 4000 RA SCT006 BKN016 11/10 Q1012
EGPH - Edinburgh, United Kingdom
Distance from station: SE 89mi, 143km
Updated: 19/06/2018 22:50
Light rain, Mostly cloudy
Light rain, Mostly cloudy
 Wind from NNE
Wind: NNE 5 mph , 7 km/h
Temperature: 10°C
Wind Chill: 9°C
Dew Point: 10°C
Humidity: 100%
Barometer: 1014 hPa
Summary: Light rain
Clouds: Mostly cloudy
Visibility: 4 miles , 6 km
Cloud details: Few Clouds 122 m
Mostly cloudy 640 m
2018/06/19 21:50 EGPH 192150Z 02004KT 6000 -RA FEW004 BKN021 10/10 Q1014
EGQK - RAF Kinloss, United Kingdom
Distance from station: NE 90mi, 144km
Updated: 19/06/2018 21:50
Light rain, Mostly cloudy
Light rain, Mostly cloudy
 Wind from ENE
Wind: ENE 2 mph , 4 km/h
Temperature: 11°C
Dew Point: 9°C
Humidity: 88%
Barometer: 1015 hPa
Summary: Light rain
Clouds: Mostly cloudy
Visibility: 6 miles , 10 km
Cloud details: Few Clouds 945 m
Mostly cloudy 1128 m
2018/06/19 20:50 EGQK 192050Z AUTO 06002KT 9999 -RA FEW031/// BKN037/// 11/09 Q1015
 
EGEC - Campbeltown, United Kingdom
Distance from station: S 90mi, 145km
Updated: 19/06/2018 17:50
NOT Current
Rain showers, Mostly cloudy
Rain showers, Mostly cloudy
 Wind from SSE
Wind: SSE 16 mph , 26 km/h
Temperature: 10°C
Wind Chill: 7°C
Dew Point: 9°C
Humidity: 94%
Barometer: 1016 hPa
Summary: Rain Showers
Clouds: Mostly cloudy
Visibility: 6 miles , 10 km
Cloud details: Few Clouds 305 m
Mostly cloudy 1036 m
2018/06/19 16:50 EGEC 191650Z 15014KT 9999 SHRA FEW010 BKN034 10/09 Q1016
EGQA - Tain Range, United Kingdom
Distance from station: NNE 91mi, 146km
Updated: 19/06/2018 11:50
NOT Current
Partly cloudy
Partly cloudy
 Wind from W
Wind: W 17 mph , 28 km/h
Clouds: Partly cloudy
Visibility: 6 miles , 10 km
Cloud details: Few Clouds 457 m
Partly cloudy 914 m
2018/06/19 10:50 EGQA 191050Z 27015KT 9999 FEW015 SCT030 14/// Q1014 BLU
EGQL - RAF Leuchars, United Kingdom
Distance from station: ESE 93mi, 149km
Updated: 19/06/2018 22:50
Rain, Mostly cloudy
Rain, Mostly cloudy
 Wind from E
Wind: E 5 mph , 7 km/h
Temperature: 10°C
Wind Chill: 9°C
Dew Point: 9°C
Humidity: 94%
Barometer: 1014 hPa
Summary: Rain
Clouds: Mostly cloudy
Visibility: 3 miles , 5 km
Cloud details: Partly cloudy 396 m
Mostly cloudy 701 m
2018/06/19 21:50 EGQL 192150Z 10004KT 5000 RA SCT013 BKN023 10/09 Q1014 GRN
 
EGPL - Benbecula, United Kingdom
Distance from station: WNW 96mi, 154km
Updated: 19/06/2018 22:50
Mostly cloudy
Mostly cloudy
 Wind from S
Wind: S 5 mph , 7 km/h
Temperature: 10°C
Wind Chill: 9°C
Dew Point: 8°C
Humidity: 88%
Barometer: 1014 hPa
Clouds: Mostly cloudy
Visibility: 6 miles , 10 km
Cloud details: Mostly cloudy 1311 m
2018/06/19 21:50 EGPL 192150Z AUTO 17004KT 9999 BKN043/// 10/08 Q1014
EGQS - RAF Lossiemouth, United Kingdom
Distance from station: NE 99mi, 160km
Updated: 19/06/2018 22:50
Light rain, Mostly cloudy
Light rain, Mostly cloudy
 Wind from S
Wind: S 3 mph , 6 km/h
Temperature: 11°C
Dew Point: 9°C
Humidity: 88%
Barometer: 1015 hPa
Summary: Light rain
Clouds: Mostly cloudy
Visibility: 6 miles , 10 km
Cloud details: Partly cloudy 975 m
Partly cloudy 1158 m
Mostly cloudy 1372 m
2018/06/19 21:50 EGQS 192150Z 17003KT 9999 -RA SCT032 SCT038 BKN045 11/09 Q1015 BLU
EGPO - Stornoway, United Kingdom
Distance from station: NNW 111mi, 179km
Updated: 19/06/2018 22:50
Clear
Clear
 Wind from W
Wind: W 5 mph , 7 km/h
Temperature: 10°C
Wind Chill: 9°C
Dew Point: 7°C
Humidity: 82%
Barometer: 1014 hPa
Clouds: Clear
Visibility: 6 miles , 10 km
2018/06/19 21:50 EGPO 192150Z AUTO 27004KT 9999 NCD 10/07 Q1014
 
EGPD - Aberdeen/Dyce, United Kingdom
Distance from station: ENE 118mi, 190km
Updated: 19/06/2018 22:50
Light rain, Partly cloudy
Light rain, Partly cloudy
 Wind from varies
Wind: varies 3 mph , 6 km/h
Temperature: 11°C
Dew Point: 8°C
Humidity: 82%
Barometer: 1014 hPa
Summary: Light rain
Clouds: Partly cloudy
Visibility: 4 miles , 7 km
Cloud details: Partly cloudy 1494 m
2018/06/19 21:50 EGPD 192150Z AUTO VRB03KT 7000 -RA SCT049 11/08 Q1014
EGAE - Eglinton/Londond, United Kingdom
Distance from station: SSW 138mi, 222km
Updated: 19/06/2018 20:50
NOT Current
Light rain, Drizzle, Overcast
Light rain, Drizzle, Overcast
 Wind from varies
Wind: varies 3 mph , 6 km/h
Temperature: 13°C
Dew Point: 12°C
Humidity: 94%
Barometer: 1011 hPa
Summary: Light rain, Drizzle
Clouds: Overcast
Visibility: 3 miles , 5 km
Cloud details: Few Clouds 91 m
Overcast 213 m
2018/06/19 19:50 EGAE 191950Z VRB03KT 5000 -RADZ FEW003 OVC007 13/12 Q1011
EGPC - Wick, United Kingdom
Distance from station: NNE 144mi, 232km
Updated: 19/06/2018 20:20
NOT Current
Few Clouds
Few Clouds
 Wind from NW
Wind: NW 5 mph , 7 km/h
Temperature: 12°C
Dew Point: 8°C
Humidity: 77%
Barometer: 1014 hPa
Clouds: Few Clouds
Visibility: 6 miles , 10 km
Cloud details: Few Clouds 366 m
2018/06/19 19:20 EGPC 191920Z 31004KT 9999 FEW012 12/08 Q1014

Metar display script from Saratoga-Weather.org